Terminal Aerodrome Forecast
Issued by NWS Mt. Holly, NJ

Home | Current Version | Previous Version | Text Only | Print | Product List | Glossary On
Versions: 1 2 3 4 5 6 7 8 9 10 11 12 13 14 15 16 17 18 19 20 21 22 23 24 25 26 27 28 29 30 31 32
000
FTUS41 KPHI 220924 AAA
TAFPHL
TAF AMD
KPHL 220924Z 2209/2312 30007KT P6SM FEW090
     FM221200 31012G21KT P6SM SKC
     FM221800 29015G28KT P6SM SCT070
      TEMPO 2220/2222 -SHRA BKN070
     FM230000 30013KT P6SM SKC
     FM230400 33010G20KT P6SM SKC
     FM230800 34006KT P6SM SKC=

USA.gov is the U.S. government's official web portal to all federal, state and local government web resources and services.